Time;durP1;ratioP1;P1;durP2;ratioP2;P2;SDS_P1;SDS_P2;PMS_P1;PMS_P2;Temp;Humidity;BMP_temperature;BMP_pressure;BME280_temperature;BME280_humidity;BME280_pressure;Samples;Min_cycle;Max_cycle;Signal;HPM_P1;HPM_P2
2021/04/06 00:06:29;;;;;;;1999.90;999.90;;;;;;;1.97;63.35;100051.63;15748761;28;20112;-68
2021/04/06 00:14:01;;;;;;;1999.90;999.90;;;;;;;1.74;63.90;100064.25;15779883;28;20439;-67
2021/04/06 00:21:35;;;;;;;1999.90;999.90;;;;;;;1.79;64.62;100063.38;15755175;28;20492;-68
2021/04/06 00:29:06;;;;;;;;;;;;;;;1.96;64.14;100068.41;15764503;28;20045;-68
2021/04/06 00:36:39;;;;;;;1999.90;999.90;;;;;;;1.45;65.80;100071.66;15763705;28;19962;-68
2021/04/06 00:44:13;;;;;;;1999.90;999.90;;;;;;;1.49;65.69;100074.66;15761768;28;20059;-68
2021/04/06 00:51:50;;;;;;;1999.90;999.90;;;;;;;1.43;66.66;100079.38;15750531;28;20028;-67
2021/04/06 00:59:23;;;;;;;1999.90;999.90;;;;;;;1.47;66.32;100082.38;15756546;28;20040;-68
2021/04/06 01:06:59;;;;;;;1999.90;999.90;;;;;;;1.67;66.10;100083.03;15755230;28;20401;-68
2021/04/06 01:14:32;;;;;;;1999.90;999.90;;;;;;;1.45;67.20;100079.91;15763773;28;20357;-68
2021/04/06 01:22:09;;;;;;;1999.90;999.90;;;;;;;1.30;67.77;100078.13;15737031;28;20140;-68
2021/04/06 01:29:48;;;;;;;1999.90;999.90;;;;;;;1.48;67.55;100064.78;15742567;28;20050;-68
2021/04/06 01:37:20;;;;;;;1999.90;999.90;;;;;;;1.53;66.80;100075.72;15768020;28;20054;-67
2021/04/06 01:44:54;;;;;;;1999.90;999.90;;;;;;;1.36;67.62;100076.97;15758702;28;20051;-68
2021/04/06 01:52:27;;;;;;;1999.90;999.90;;;;;;;1.30;67.72;100071.78;15759453;28;20044;-68
2021/04/06 02:00:05;;;;;;;1999.90;999.90;;;;;;;1.39;67.17;100083.81;15745862;28;20036;-68
2021/04/06 02:07:47;;;;;;;1999.90;999.90;;;;;;;1.35;66.97;100094.56;15803951;28;20036;-67
2021/04/06 02:15:19;;;;;;;1999.90;999.90;;;;;;;1.90;66.01;100102.63;15774259;28;20041;-67
2021/04/06 02:22:56;;;;;;;1999.90;999.90;;;;;;;1.35;67.09;100100.06;15767762;28;20204;-67
2021/04/06 02:30:31;;;;;;;1999.90;999.90;;;;;;;1.49;66.88;100105.72;15780185;28;20072;-68
2021/04/06 02:38:04;;;;;;;1999.90;999.90;;;;;;;1.55;66.79;100103.75;15764129;28;20040;-67
2021/04/06 02:45:36;;;;;;;1999.90;999.90;;;;;;;1.34;67.20;100103.91;15776818;28;20434;-68
2021/04/06 02:53:11;;;;;;;1999.90;999.90;;;;;;;1.63;66.46;100095.69;15738036;28;20048;-68
2021/04/06 03:00:43;;;;;;;1999.90;999.90;;;;;;;1.39;67.41;100090.13;15774690;28;20528;-68
2021/04/06 03:08:15;;;;;;;1999.90;999.90;;;;;;;1.30;67.51;100121.28;15738922;28;20040;-68
2021/04/06 03:15:47;;;;;;;1999.90;999.90;;;;;;;1.64;66.87;100116.59;15769594;28;20044;-68
2021/04/06 03:23:19;;;;;;;1999.90;999.90;;;;;;;1.33;68.04;100117.94;15744378;28;20481;-68
2021/04/06 03:31:07;;;;;;;1999.90;999.90;;;;;;;1.34;66.92;100095.66;15742832;28;20055;-68
2021/04/06 03:38:40;;;;;;;1999.90;999.90;;;;;;;1.32;67.17;100097.06;15754878;28;20094;-68
2021/04/06 03:46:12;;;;;;;1999.90;999.90;;;;;;;1.20;67.02;100100.19;15765563;28;20040;-67
2021/04/06 03:53:44;;;;;;;1999.90;999.90;;;;;;;1.35;67.16;100097.31;15780441;28;20061;-68
2021/04/06 04:01:16;;;;;;;1999.90;999.90;;;;;;;1.24;66.65;100100.41;15756736;28;20499;-68
2021/04/06 04:08:47;;;;;;;1999.90;999.90;;;;;;;1.02;66.68;100101.66;15774376;28;20278;-67
2021/04/06 04:16:21;;;;;;;1999.90;999.90;;;;;;;1.18;67.02;100096.91;15756858;28;20040;-68
2021/04/06 04:23:53;;;;;;;1999.90;999.90;;;;;;;1.05;66.63;100092.06;15774291;28;20131;-68
2021/04/06 04:39:18;;;;;;;;;;;;;;;1.05;66.99;100072.81;14910939;26;20049;-60
2021/04/06 04:46:50;;;;;;;1999.90;999.90;;;;;;;0.92;67.49;100073.44;15588312;22;19920;-61
2021/04/06 04:54:23;;;;;;;1999.90;999.90;;;;;;;0.83;67.57;100067.72;15660284;28;20060;-61
2021/04/06 05:01:55;;;;;;;1999.90;999.90;;;;;;;0.91;67.75;100074.53;15636305;28;20041;-61
2021/04/06 05:09:28;;;;;;;1999.90;999.90;;;;;;;1.30;66.39;100074.53;15610970;28;20370;-61
2021/04/06 05:17:02;;;;;;;1999.90;999.90;;;;;;;1.18;66.63;100085.91;15632089;28;20045;-61
2021/04/06 05:24:35;;;;;;;1999.90;999.90;;;;;;;1.60;65.25;100088.03;15653804;28;20362;-61
2021/04/06 05:32:07;;;;;;;1999.90;999.90;;;;;;;2.41;63.59;100085.53;15662948;28;20037;-61
2021/04/06 05:39:40;;;;;;;1999.90;999.90;;;;;;;2.84;62.03;100078.09;15613016;28;20104;-61
2021/04/06 05:47:15;;;;;;;1999.90;999.90;;;;;;;3.58;61.19;100081.06;15632751;28;20041;-61
2021/04/06 05:54:48;;;;;;;1999.90;999.90;;;;;;;4.27;58.87;100071.78;15639607;28;20144;-60
2021/04/06 06:02:20;;;;;;;1999.90;999.90;;;;;;;3.94;58.77;100075.72;15618814;28;20073;-61
2021/04/06 06:09:53;;;;;;;1999.90;999.90;;;;;;;4.52;57.96;100077.91;15583933;28;20464;-61
2021/04/06 06:17:26;;;;;;;1999.90;999.90;;;;;;;5.06;57.14;100074.22;15582821;28;20042;-60
2021/04/06 06:25:04;;;;;;;1999.90;999.90;;;;;;;5.01;56.36;100090.13;15582915;28;20140;-61
2021/04/06 06:32:36;;;;;;;1999.90;999.90;;;;;;;5.91;54.69;100093.75;15598682;28;20304;-56
2021/04/06 06:40:09;;;;;;;1999.90;999.90;;;;;;;6.73;52.31;100086.75;15602489;28;20056;-53
2021/04/06 06:47:53;;;;;;;1999.90;999.90;;;;;;;7.32;50.97;100081.63;15598025;28;20041;-56
2021/04/06 06:55:26;;;;;;;1999.90;999.90;;;;;;;7.87;50.00;100087.25;15638634;28;20049;-57
2021/04/06 07:02:58;;;;;;;1999.90;999.90;;;;;;;7.44;50.89;100076.22;15643070;28;20036;-57
2021/04/06 07:10:33;;;;;;;1999.90;999.90;;;;;;;6.63;52.88;100074.00;15675706;28;20098;-59
2021/04/06 07:18:07;;;;;;;1999.90;999.90;;;;;;;7.29;51.79;100066.41;15675101;28;20049;-58
2021/04/06 07:25:45;;;;;;;1999.90;999.90;;;;;;;6.68;52.66;100061.97;15674831;28;20045;-57
2021/04/06 07:33:19;;;;;;;1999.90;999.90;;;;;;;8.19;50.38;100057.25;15640267;28;20041;-57
2021/04/06 07:40:53;;;;;;;1999.90;999.90;;;;;;;9.17;47.52;100062.44;15674780;28;20045;-58
2021/04/06 07:48:48;;;;;;;1999.90;999.90;;;;;;;9.67;47.09;100063.47;15654910;28;20390;-55
2021/04/06 07:56:49;;;;;;;1999.90;999.90;;;;;;;9.25;47.93;100058.75;15673646;28;20056;-53
2021/04/06 08:04:22;;;;;;;1999.90;999.90;;;;;;;7.35;52.06;100067.88;15673641;28;20059;-57
2021/04/06 08:12:06;;;;;;;1999.90;999.90;;;;;;;8.47;49.93;100066.81;15638511;28;20061;-56
2021/04/06 08:19:49;;;;;;;1999.90;999.90;;;;;;;7.99;50.57;100076.28;15654635;28;20461;-55
2021/04/06 08:27:39;;;;;;;1999.90;999.90;;;;;;;7.11;54.10;100079.47;15656592;28;20508;-53
2021/04/06 08:35:11;;;;;;;1999.90;999.90;;;;;;;6.73;54.61;100089.53;15657020;28;20047;-56
2021/04/06 08:42:45;;;;;;;1999.90;999.90;;;;;;;6.20;56.88;100099.59;15673345;28;20132;-52
2021/04/06 08:50:33;;;;;;;1999.90;999.90;;;;;;;5.78;57.54;100079.66;15637590;28;20074;-55
2021/04/06 08:58:05;;;;;;;1999.90;999.90;;;;;;;5.95;57.27;100100.31;15670730;28;20045;-56
2021/04/06 09:05:37;;;;;;;1999.90;999.90;;;;;;;6.22;57.04;100096.53;15652967;28;20115;-58
2021/04/06 09:13:13;;;;;;;1999.90;999.90;;;;;;;6.52;56.53;100103.97;15663331;28;20123;-56
2021/04/06 09:20:46;;;;;;;1999.90;999.90;;;;;;;6.21;56.27;100114.28;15653348;28;20049;-52
2021/04/06 09:28:18;;;;;;;1999.90;999.90;;;;;;;6.79;54.93;100108.47;15653524;28;20037;-54
2021/04/06 09:35:53;;;;;;;1999.90;999.90;;;;;;;6.54;56.36;100110.00;15652519;28;20525;-55
2021/04/06 09:43:26;;;;;;;1999.90;999.90;;;;;;;6.71;56.39;100100.94;15652975;28;20060;-55
2021/04/06 09:51:00;;;;;;;1999.90;999.90;;;;;;;8.59;51.60;100093.91;15653131;28;20049;-52
2021/04/06 09:58:34;;;;;;;1999.90;999.90;;;;;;;8.29;50.50;100095.81;15669640;28;20095;-54
2021/04/06 10:06:08;;;;;;;1999.90;999.90;;;;;;;8.57;50.97;100082.31;15637970;28;20052;-58
2021/04/06 10:13:41;;;;;;;1999.90;999.90;;;;;;;8.26;51.39;100077.84;15645621;28;20041;-57
2021/04/06 10:21:22;;;;;;;1999.90;999.90;;;;;;;8.85;48.85;100071.50;15661710;28;20412;-56
2021/04/06 10:29:07;;;;;;;1999.90;999.90;;;;;;;10.40;47.38;100072.03;15682043;28;20087;-56
2021/04/06 10:36:39;;;;;;;1999.90;999.90;;;;;;;9.04;48.04;100055.16;15664763;28;20048;-55
2021/04/06 10:45:01;;;;;;;;;;;;;;;;;;;;;
2021/04/06 10:53:46;;;;;;;1999.90;999.90;;;;;;;8.61;49.42;100030.41;15706378;28;20121;-85
2021/04/06 11:01:48;;;;;;;;;;;;;;;;;;;;;
2021/04/06 11:10:21;;;;;;;;;;;;;;;;;;;;;
2021/04/06 11:18:07;;;;;;;;;;;;;;;10.53;42.34;100020.69;15744371;22;20392;-63
2021/04/06 11:25:40;;;;;;;1999.90;999.90;;;;;;;10.32;43.61;99997.69;15772578;28;19973;-63
2021/04/06 11:33:13;;;;;;;1999.90;999.90;;;;;;;11.51;41.39;99990.50;15807031;28;20503;-63
2021/04/06 11:40:44;;;;;;;1999.90;999.90;;;;;;;9.83;42.59;100019.88;15807187;28;20136;-64
2021/04/06 11:48:17;;;;;;;1999.90;999.90;;;;;;;6.02;56.43;100021.16;15787723;28;20101;-61
2021/04/06 11:55:49;;;;;;;1999.90;999.90;;;;;;;6.92;49.54;99990.22;15805199;28;20055;-63
2021/04/06 12:03:22;;;;;;;1999.90;999.90;;;;;;;11.42;43.46;99994.63;15786784;28;20132;-63
2021/04/06 12:11:09;;;;;;;1999.90;999.90;;;;;;;10.76;47.23;99981.94;15788694;28;20423;-63
2021/04/06 12:18:44;;;;;;;1999.90;999.90;;;;;;;13.02;40.66;99973.44;15803364;28;20044;-63
2021/04/06 12:26:27;;;;;;;1999.90;999.90;;;;;;;15.34;34.75;99958.53;15787489;28;20511;-65
2021/04/06 12:33:59;;;;;;;1999.90;999.90;;;;;;;10.52;39.52;99959.63;15802380;28;20044;-62
2021/04/06 12:41:31;;;;;;;1999.90;999.90;;;;;;;6.08;57.10;100042.03;15803122;28;20508;-64
2021/04/06 12:49:04;;;;;;;1999.90;999.90;;;;;;;10.24;49.17;99963.16;15767759;28;20044;-63
2021/04/06 12:56:36;;;;;;;1999.90;999.90;;;;;;;13.01;41.01;99972.63;15784212;28;20522;-63
2021/04/06 13:04:08;;;;;;;1999.90;999.90;;;;;;;9.00;44.44;99940.13;15767421;28;20397;-63
2021/04/06 13:11:40;;;;;;;1999.90;999.90;;;;;;;14.12;36.14;99941.13;15802233;28;20120;-63
2021/04/06 13:19:12;;;;;;;1999.90;999.90;;;;;;;9.47;43.92;99934.25;15720700;28;20492;-63
2021/04/06 13:26:44;;;;;;;1999.90;999.90;;;;;;;9.68;45.17;99943.34;15716274;28;20045;-65
2021/04/06 13:34:17;;;;;;;1999.90;999.90;;;;;;;9.55;44.01;99953.66;15738351;28;20052;-62
2021/04/06 13:41:48;;;;;;;1999.90;999.90;;;;;;;8.83;45.43;99931.94;15718974;28;20032;-63
2021/04/06 13:49:21;;;;;;;1999.90;999.90;;;;;;;9.96;39.71;99920.38;15731596;28;20094;-62
2021/04/06 13:56:52;;;;;;;1999.90;999.90;;;;;;;10.80;35.52;99921.44;15728768;28;20040;-63
2021/04/06 14:04:25;;;;;;;1999.90;999.90;;;;;;;9.39;40.43;99910.94;15731100;28;20052;-64
2021/04/06 14:11:56;;;;;;;1999.90;999.90;;;;;;;8.65;43.73;99922.94;15730647;28;20043;-64
2021/04/06 14:19:29;;;;;;;1999.90;999.90;;;;;;;8.77;43.38;99925.78;15730587;28;20510;-64
2021/04/06 14:27:00;;;;;;;1999.90;999.90;;;;;;;8.09;43.57;99925.06;15729321;28;20135;-64
2021/04/06 14:34:33;;;;;;;1999.90;999.90;;;;;;;8.35;44.10;99911.88;15749392;28;20067;-62
2021/04/06 14:42:05;;;;;;;1999.90;999.90;;;;;;;7.79;46.20;99949.22;15757601;28;20492;-62
2021/04/06 14:49:37;;;;;;;1999.90;999.90;;;;;;;7.94;55.24;99940.34;15735368;28;20044;-63
2021/04/06 14:57:09;;;;;;;1999.90;999.90;;;;;;;7.68;51.43;99931.31;15743065;28;20041;-63
2021/04/06 15:04:43;;;;;;;1999.90;999.90;;;;;;;7.77;51.66;99923.75;15722449;28;20040;-63
2021/04/06 15:12:15;;;;;;;1999.90;999.90;;;;;;;8.07;50.50;99913.47;15728276;28;20416;-63
2021/04/06 15:19:55;;;;;;;1999.90;999.90;;;;;;;8.37;47.52;99895.66;15780968;28;20518;-62
2021/04/06 15:27:26;;;;;;;1999.90;999.90;;;;;;;8.08;43.41;99890.91;15807537;28;20455;-63
2021/04/06 15:34:59;;;;;;;1999.90;999.90;;;;;;;7.98;44.26;99885.72;15806286;28;20488;-63
2021/04/06 15:42:32;;;;;;;1999.90;999.90;;;;;;;8.32;45.15;99881.09;15806437;28;20063;-63
2021/04/06 15:50:14;;;;;;;1999.90;999.90;;;;;;;7.78;46.61;99909.53;15806029;28;20295;-62
2021/04/06 15:57:51;;;;;;;1999.90;999.90;;;;;;;6.82;54.71;99946.16;15770023;28;20037;-61
2021/04/06 16:05:25;;;;;;;1999.90;999.90;;;;;;;6.12;59.88;99948.03;15790546;28;20534;-61
2021/04/06 16:12:58;;;;;;;1999.90;999.90;;;;;;;5.74;61.44;99950.50;15788384;28;20046;-61
2021/04/06 16:20:34;;;;;;;1999.90;999.90;;;;;;;6.04;60.54;99957.13;15805160;28;20048;-63
2021/04/06 16:28:08;;;;;;;1999.90;999.90;;;;;;;6.04;61.19;99948.81;15749547;28;20498;-64
2021/04/06 16:35:42;;;;;;;1999.90;999.90;;;;;;;6.15;60.01;99941.03;15723121;28;20056;-64
2021/04/06 16:43:14;;;;;;;1999.90;999.90;;;;;;;5.79;61.08;99928.19;15741117;28;20056;-63
2021/04/06 16:50:46;;;;;;;1999.90;999.90;;;;;;;5.58;59.62;99925.19;15740925;28;20072;-64
2021/04/06 16:58:18;;;;;;;1999.90;999.90;;;;;;;5.51;58.58;99908.22;15737946;28;20044;-62
2021/04/06 17:05:50;;;;;;;1999.90;999.90;;;;;;;5.22;57.14;99915.09;15802213;28;20119;-62
2021/04/06 17:13:22;;;;;;;1999.90;999.90;;;;;;;5.35;55.72;99905.06;15776939;23;20128;-60
2021/04/06 17:20:56;;;;;;;1999.90;999.90;;;;;;;5.18;56.53;99910.47;15688583;28;20428;-58
2021/04/06 17:28:27;;;;;;;1999.90;999.90;;;;;;;5.01;58.24;99927.00;15680650;28;20065;-56
2021/04/06 17:36:03;;;;;;;1999.90;999.90;;;;;;;5.21;57.72;99930.03;15682826;28;20048;-59
2021/04/06 17:43:38;;;;;;;1999.90;999.90;;;;;;;5.10;58.21;99931.41;15666630;28;20041;-56
2021/04/06 17:51:13;;;;;;;1999.90;999.90;;;;;;;4.91;59.43;99944.66;15673692;28;20495;-60
2021/04/06 17:58:45;;;;;;;1999.90;999.90;;;;;;;4.93;59.34;99947.91;15641261;28;20037;-55
2021/04/06 18:06:18;;;;;;;1999.90;999.90;;;;;;;4.90;58.90;99948.53;15623221;28;20101;-55
2021/04/06 18:13:50;;;;;;;1999.90;999.90;;;;;;;4.87;59.25;99955.50;15680212;28;20087;-60
2021/04/06 18:21:24;;;;;;;1999.90;999.90;;;;;;;4.63;60.04;99954.97;15646978;28;20063;-65
2021/04/06 18:28:56;;;;;;;1999.90;999.90;;;;;;;4.62;59.25;99964.41;15680113;28;20124;-58
2021/04/06 18:36:29;;;;;;;1999.90;999.90;;;;;;;4.70;60.15;99980.25;15679504;28;20525;-56
2021/04/06 18:44:02;;;;;;;1999.90;999.90;;;;;;;4.32;61.05;99977.75;15647285;28;20049;-62
2021/04/06 18:51:38;;;;;;;1999.90;999.90;;;;;;;4.45;61.08;99992.66;15660086;28;20052;-55
2021/04/06 18:59:09;;;;;;;1999.90;999.90;;;;;;;4.54;61.08;100004.63;15677477;28;20211;-59
2021/04/06 19:06:43;;;;;;;1999.90;999.90;;;;;;;4.61;60.46;99993.97;15678174;28;20052;-59
2021/04/06 19:14:15;;;;;;;1999.90;999.90;;;;;;;4.62;60.47;99998.38;15675370;28;20075;-62
2021/04/06 19:21:48;;;;;;;1999.90;999.90;;;;;;;4.69;61.48;100002.63;15659228;28;20037;-64
2021/04/06 19:29:19;;;;;;;1999.90;999.90;;;;;;;4.58;62.82;100002.06;15675945;28;20056;-63
2021/04/06 19:36:52;;;;;;;1999.90;999.90;;;;;;;4.45;62.92;99994.63;15675365;28;20037;-63
2021/04/06 19:44:25;;;;;;;1999.90;999.90;;;;;;;4.16;63.36;99992.19;15672343;28;20045;-59
2021/04/06 19:51:58;;;;;;;1999.90;999.90;;;;;;;4.03;63.95;99991.91;15675000;28;20056;-62
2021/04/06 19:59:29;;;;;;;1999.90;999.90;;;;;;;3.53;64.80;99990.09;15657177;28;20049;-63
2021/04/06 20:07:02;;;;;;;1999.90;999.90;;;;;;;3.42;65.04;99992.22;15639506;28;20394;-64
2021/04/06 20:14:34;;;;;;;1999.90;999.90;;;;;;;3.61;64.29;99998.50;15670534;28;20114;-63
2021/04/06 20:22:07;;;;;;;1999.90;999.90;;;;;;;3.48;65.21;99997.38;15636079;28;20037;-61
2021/04/06 20:29:38;;;;;;;1999.90;999.90;;;;;;;3.24;65.30;100002.22;15619361;28;20064;-59
2021/04/06 20:37:11;;;;;;;1999.90;999.90;;;;;;;3.59;64.69;100009.03;15655156;28;20489;-63
2021/04/06 20:44:43;;;;;;;1999.90;999.90;;;;;;;3.25;65.40;99998.34;15639062;28;20136;-61
2021/04/06 20:52:15;;;;;;;1999.90;999.90;;;;;;;3.04;66.02;99997.84;15653536;28;20452;-61
2021/04/06 20:59:47;;;;;;;1999.90;999.90;;;;;;;3.46;64.52;99993.28;15671726;28;20448;-62
2021/04/06 21:07:19;;;;;;;1999.90;999.90;;;;;;;3.45;64.81;100005.44;15652926;28;20049;-61
2021/04/06 21:14:50;;;;;;;1999.90;999.90;;;;;;;3.60;64.75;100018.13;15654970;28;20049;-57
2021/04/06 21:22:23;;;;;;;1999.90;999.90;;;;;;;3.37;65.26;100012.47;15669153;28;20045;-62
2021/04/06 21:29:56;;;;;;;;;;;;;;;3.53;64.69;100013.00;15670214;28;20663;-59
2021/04/06 21:37:28;;;;;;;1999.90;999.90;;;;;;;3.39;65.20;100003.88;15635668;28;19963;-60
2021/04/06 21:45:00;;;;;;;1999.90;999.90;;;;;;;3.51;65.24;100003.38;15651658;28;20045;-61
2021/04/06 21:52:32;;;;;;;1999.90;999.90;;;;;;;3.41;65.51;99996.94;15670644;28;20052;-59
2021/04/06 22:00:09;;;;;;;1999.90;999.90;;;;;;;3.34;65.67;100007.56;15591004;28;20041;-61
2021/04/06 22:07:41;;;;;;;1999.90;999.90;;;;;;;3.65;65.20;100012.53;15681939;28;20125;-58
2021/04/06 22:15:18;;;;;;;1999.90;999.90;;;;;;;3.32;65.79;100025.50;15662719;28;20110;-59
2021/04/06 22:22:53;;;;;;;1999.90;999.90;;;;;;;3.76;64.97;100023.06;15678316;28;20029;-60
2021/04/06 22:30:25;;;;;;;1999.90;999.90;;;;;;;3.51;65.24;100023.50;15679932;28;20098;-57
2021/04/06 22:37:57;;;;;;;1999.90;999.90;;;;;;;3.30;66.21;100023.06;15662235;28;20064;-59
2021/04/06 22:45:29;;;;;;;1999.90;999.90;;;;;;;3.44;66.34;100032.19;15679643;28;20119;-58
2021/04/06 22:53:05;;;;;;;1999.90;999.90;;;;;;;3.53;66.39;100031.50;15661394;28;20139;-56
2021/04/06 23:00:39;;;;;;;1999.90;999.90;;;;;;;3.42;67.39;100039.94;15660966;28;20041;-59
2021/04/06 23:08:12;;;;;;;1999.90;999.90;;;;;;;3.35;67.73;100058.84;15660140;28;20369;-60
2021/04/06 23:15:44;;;;;;;1999.90;999.90;;;;;;;3.54;67.19;100064.28;15697356;22;20049;-75
2021/04/06 23:23:17;;;;;;;1999.90;999.90;;;;;;;3.55;67.70;100057.66;15689132;28;20041;-75
2021/04/06 23:30:50;;;;;;;1999.90;999.90;;;;;;;3.55;67.15;100059.63;15718785;22;20175;-62
2021/04/06 23:38:23;;;;;;;1999.90;999.90;;;;;;;3.44;68.10;100076.34;15685205;28;20041;-64
2021/04/06 23:45:55;;;;;;;1999.90;999.90;;;;;;;3.32;68.97;100087.00;15684861;28;20045;-63
2021/04/06 23:53:27;;;;;;;1999.90;999.90;;;;;;;3.53;68.00;100093.00;15716437;28;20063;-63
